sensor_id;sensor_type;location;lat;lon;timestamp;pressure;altitude;pressure_sealevel;temperature;humidity
12182;BME280;6154;51.550;12.138;2023-02-13T00:00:46;102763.97;;;13.76;60.87
12182;BME280;6154;51.550;12.138;2023-02-13T00:03:14;102755.97;;;13.76;60.96
12182;BME280;6154;51.550;12.138;2023-02-13T00:05:43;102758.75;;;13.73;61.02
12182;BME280;6154;51.550;12.138;2023-02-13T00:08:11;102756.16;;;13.70;61.35
12182;BME280;6154;51.550;12.138;2023-02-13T00:10:40;102749.09;;;13.69;61.30
12182;BME280;6154;51.550;12.138;2023-02-13T00:13:08;102742.94;;;13.67;61.57
12182;BME280;6154;51.550;12.138;2023-02-13T00:15:37;102740.28;;;13.67;61.40
12182;BME280;6154;51.550;12.138;2023-02-13T00:18:05;102738.56;;;13.66;61.48
12182;BME280;6154;51.550;12.138;2023-02-13T00:20:34;102733.22;;;13.66;61.63
12182;BME280;6154;51.550;12.138;2023-02-13T00:23:02;102734.97;;;13.67;61.42
12182;BME280;6154;51.550;12.138;2023-02-13T00:25:30;102741.16;;;13.68;61.28
12182;BME280;6154;51.550;12.138;2023-02-13T00:27:58;102734.03;;;13.68;61.19
12182;BME280;6154;51.550;12.138;2023-02-13T00:30:26;102723.41;;;13.68;61.11
12182;BME280;6154;51.550;12.138;2023-02-13T00:32:56;102720.75;;;13.68;61.10
12182;BME280;6154;51.550;12.138;2023-02-13T00:35:24;102731.37;;;13.68;61.08
12182;BME280;6154;51.550;12.138;2023-02-13T00:37:52;102726.06;;;13.68;61.05
12182;BME280;6154;51.550;12.138;2023-02-13T00:40:23;102733.12;;;13.69;61.24
12182;BME280;6154;51.550;12.138;2023-02-13T00:42:51;102723.34;;;13.70;61.25
12182;BME280;6154;51.550;12.138;2023-02-13T00:45:19;102724.22;;;13.70;61.14
12182;BME280;6154;51.550;12.138;2023-02-13T00:47:48;102720.63;;;13.71;61.13
12182;BME280;6154;51.550;12.138;2023-02-13T00:50:20;102724.16;;;13.73;60.96
12182;BME280;6154;51.550;12.138;2023-02-13T00:52:48;102724.16;;;13.73;61.02
12182;BME280;6154;51.550;12.138;2023-02-13T00:55:17;102727.69;;;13.72;61.07
12182;BME280;6154;51.550;12.138;2023-02-13T00:57:45;102729.47;;;13.73;61.00
12182;BME280;6154;51.550;12.138;2023-02-13T01:00:15;102726.81;;;13.73;60.94
12182;BME280;6154;51.550;12.138;2023-02-13T01:02:43;102721.47;;;13.73;60.97
12182;BME280;6154;51.550;12.138;2023-02-13T01:05:11;102727.69;;;13.72;61.03
12182;BME280;6154;51.550;12.138;2023-02-13T01:07:41;102730.34;;;13.72;60.95
12182;BME280;6154;51.550;12.138;2023-02-13T01:10:11;102733.03;;;13.72;60.97
12182;BME280;6154;51.550;12.138;2023-02-13T01:12:40;102729.47;;;13.73;60.88
12182;BME280;6154;51.550;12.138;2023-02-13T01:15:09;102731.37;;;13.68;61.25
12182;BME280;6154;51.550;12.138;2023-02-13T01:17:38;102732.25;;;13.69;61.01
12182;BME280;6154;51.550;12.138;2023-02-13T01:20:08;102740.19;;;13.70;61.04
12182;BME280;6154;51.550;12.138;2023-02-13T01:22:37;102737.53;;;13.70;60.99
12182;BME280;6154;51.550;12.138;2023-02-13T01:25:07;102737.63;;;13.67;61.08
12182;BME280;6154;51.550;12.138;2023-02-13T01:27:36;102745.72;;;13.64;61.13
12182;BME280;6154;51.550;12.138;2023-02-13T01:30:06;102734.22;;;13.62;61.24
12182;BME280;6154;51.550;12.138;2023-02-13T01:32:38;102736.88;;;13.64;61.12
12182;BME280;6154;51.550;12.138;2023-02-13T01:35:06;102729.78;;;13.63;61.14
12182;BME280;6154;51.550;12.138;2023-02-13T01:37:36;102728.88;;;13.64;61.11
12182;BME280;6154;51.550;12.138;2023-02-13T01:40:11;102726.25;;;13.62;61.11
12182;BME280;6154;51.550;12.138;2023-02-13T01:42:40;102731.56;;;13.62;61.10
12182;BME280;6154;51.550;12.138;2023-02-13T01:45:21;102728.91;;;13.62;61.00
12182;BME280;6154;51.550;12.138;2023-02-13T01:47:53;102725.69;;;13.51;61.85
12182;BME280;6154;51.550;12.138;2023-02-13T01:50:28;102725.63;;;13.54;61.31
12182;BME280;6154;51.550;12.138;2023-02-13T01:53:03;102727.44;;;13.52;61.35
12182;BME280;6154;51.550;12.138;2023-02-13T01:55:38;102712.41;;;13.51;61.50
12182;BME280;6154;51.550;12.138;2023-02-13T01:58:12;102718.63;;;13.50;61.36
12182;BME280;6154;51.550;12.138;2023-02-13T02:00:42;102719.50;;;13.50;61.23
12182;BME280;6154;51.550;12.138;2023-02-13T02:03:18;102714.13;;;13.52;61.17
12182;BME280;6154;51.550;12.138;2023-02-13T02:05:49;102716.91;;;13.49;61.22
12182;BME280;6154;51.550;12.138;2023-02-13T02:08:18;102716.03;;;13.48;61.10
12182;BME280;6154;51.550;12.138;2023-02-13T02:10:52;102699.16;;;13.49;61.04
12182;BME280;6154;51.550;12.138;2023-02-13T02:13:25;102703.59;;;13.49;61.01
12182;BME280;6154;51.550;12.138;2023-02-13T02:15:53;102700.00;;;13.50;61.07
12182;BME280;6154;51.550;12.138;2023-02-13T02:18:22;102695.63;;;13.49;61.05
12182;BME280;6154;51.550;12.138;2023-02-13T02:21:17;102698.28;;;13.49;61.14
12182;BME280;6154;51.550;12.138;2023-02-13T02:24:06;102702.62;;;13.51;61.16
12182;BME280;6154;51.550;12.138;2023-02-13T02:27:13;102693.78;;;13.51;61.12
12182;BME280;6154;51.550;12.138;2023-02-13T02:30:29;102701.81;;;13.49;61.05
12182;BME280;6154;51.550;12.138;2023-02-13T02:33:12;102703.59;;;13.49;61.22
12182;BME280;6154;51.550;12.138;2023-02-13T02:35:49;102693.16;;;13.43;61.28
12182;BME280;6154;51.550;12.138;2023-02-13T02:38:32;102702.00;;;13.43;61.05
12182;BME280;6154;51.550;12.138;2023-02-13T02:41:06;102700.22;;;13.44;61.13
12182;BME280;6154;51.550;12.138;2023-02-13T02:43:46;102692.31;;;13.41;61.02
12182;BME280;6154;51.550;12.138;2023-02-13T02:46:24;102697.56;;;13.44;61.04
12182;BME280;6154;51.550;12.138;2023-02-13T02:49:03;102692.41;;;13.38;61.14
12182;BME280;6154;51.550;12.138;2023-02-13T02:51:57;102695.13;;;13.36;61.34
12182;BME280;6154;51.550;12.138;2023-02-13T02:54:35;102696.97;;;13.33;61.41
12182;BME280;6154;51.550;12.138;2023-02-13T02:57:28;102695.22;;;13.33;61.27
12182;BME280;6154;51.550;12.138;2023-02-13T03:00:19;102705.81;;;13.35;61.19
12182;BME280;6154;51.550;12.138;2023-02-13T03:03:12;102702.28;;;13.34;61.14
12182;BME280;6154;51.550;12.138;2023-02-13T03:06:03;102696.16;;;13.31;61.25
12182;BME280;6154;51.550;12.138;2023-02-13T03:08:42;102696.16;;;13.31;61.17
12182;BME280;6154;51.550;12.138;2023-02-13T03:11:30;102705.06;;;13.30;61.29
12182;BME280;6154;51.550;12.138;2023-02-13T03:14:19;102705.16;;;13.27;61.34
12182;BME280;6154;51.550;12.138;2023-02-13T03:16:48;102708.63;;;13.29;61.28
12182;BME280;6154;51.550;12.138;2023-02-13T03:19:46;102705.97;;;13.29;61.20
12182;BME280;6154;51.550;12.138;2023-02-13T03:22:43;102700.66;;;13.29;61.33
12182;BME280;6154;51.550;12.138;2023-02-13T03:25:17;102704.19;;;13.29;61.27
12182;BME280;6154;51.550;12.138;2023-02-13T03:28:07;102707.72;;;13.30;61.23
12182;BME280;6154;51.550;12.138;2023-02-13T03:30:59;102715.75;;;13.28;61.37
12182;BME280;6154;51.550;12.138;2023-02-13T03:33:42;102717.69;;;13.23;61.60
12182;BME280;6154;51.550;12.138;2023-02-13T03:36:17;102718.56;;;13.23;61.71
12182;BME280;6154;51.550;12.138;2023-02-13T03:39:11;102722.19;;;13.19;61.87
12182;BME280;6154;51.550;12.138;2023-02-13T03:41:49;102715.22;;;13.15;62.12
12182;BME280;6154;51.550;12.138;2023-02-13T03:44:24;102716.12;;;13.14;62.21
12182;BME280;6154;51.550;12.138;2023-02-13T03:46:57;102724.09;;;13.14;62.25
12182;BME280;6154;51.550;12.138;2023-02-13T03:49:29;102711.78;;;13.10;62.33
12182;BME280;6154;51.550;12.138;2023-02-13T03:52:18;102718.94;;;13.08;62.41
12182;BME280;6154;51.550;12.138;2023-02-13T03:54:53;102713.53;;;13.11;62.40
12182;BME280;6154;51.550;12.138;2023-02-13T03:57:42;102719.72;;;13.13;62.29
12182;BME280;6154;51.550;12.138;2023-02-13T04:00:34;102719.72;;;13.12;62.43
12182;BME280;6154;51.550;12.138;2023-02-13T04:03:16;102725.28;;;13.04;63.00
12182;BME280;6154;51.550;12.138;2023-02-13T04:05:50;102716.44;;;13.02;62.93
12182;BME280;6154;51.550;12.138;2023-02-13T04:08:21;102719.91;;;13.06;62.82
12182;BME280;6154;51.550;12.138;2023-02-13T04:10:53;102720.88;;;13.03;63.00
12182;BME280;6154;51.550;12.138;2023-02-13T04:13:27;102716.44;;;13.02;63.04
12182;BME280;6154;51.550;12.138;2023-02-13T04:16:03;102721.78;;;13.02;62.89
12182;BME280;6154;51.550;12.138;2023-02-13T04:18:34;102720.75;;;13.08;62.54
12182;BME280;6154;51.550;12.138;2023-02-13T04:21:03;102720.59;;;13.12;62.32
12182;BME280;6154;51.550;12.138;2023-02-13T04:23:32;102728.56;;;13.14;62.21
12182;BME280;6154;51.550;12.138;2023-02-13T04:26:07;102721.34;;;13.17;62.11
12182;BME280;6154;51.550;12.138;2023-02-13T04:28:35;102725.78;;;13.17;62.20
12182;BME280;6154;51.550;12.138;2023-02-13T04:31:04;102724.00;;;13.17;61.98
12182;BME280;6154;51.550;12.138;2023-02-13T04:33:32;102721.28;;;13.20;61.81
12182;BME280;6154;51.550;12.138;2023-02-13T04:36:00;102726.59;;;13.20;61.75
12182;BME280;6154;51.550;12.138;2023-02-13T04:38:29;102724.87;;;13.19;61.85
12182;BME280;6154;51.550;12.138;2023-02-13T04:40:58;102722.16;;;13.21;61.75
12182;BME280;6154;51.550;12.138;2023-02-13T04:43:28;102716.78;;;13.22;61.66
12182;BME280;6154;51.550;12.138;2023-02-13T04:45:57;102719.44;;;13.24;61.58
12182;BME280;6154;51.550;12.138;2023-02-13T04:48:25;102716.72;;;13.26;61.47
12182;BME280;6154;51.550;12.138;2023-02-13T04:50:53;102710.59;;;13.23;61.49
12182;BME280;6154;51.550;12.138;2023-02-13T04:53:22;102711.47;;;13.22;61.47
12182;BME280;6154;51.550;12.138;2023-02-13T04:55:51;102710.66;;;13.20;61.55
12182;BME280;6154;51.550;12.138;2023-02-13T04:58:19;102710.69;;;13.19;61.58
12182;BME280;6154;51.550;12.138;2023-02-13T05:00:55;102711.69;;;13.15;61.81
12182;BME280;6154;51.550;12.138;2023-02-13T05:03:23;102715.28;;;13.12;61.83
12182;BME280;6154;51.550;12.138;2023-02-13T05:05:52;102710.97;;;13.08;62.06
12182;BME280;6154;51.550;12.138;2023-02-13T05:08:20;102708.22;;;13.11;61.77
12182;BME280;6154;51.550;12.138;2023-02-13T05:10:49;102709.94;;;13.14;61.71
12182;BME280;6154;51.550;12.138;2023-02-13T05:13:17;102716.19;;;13.13;61.81
12182;BME280;6154;51.550;12.138;2023-02-13T05:15:48;102713.47;;;13.14;61.66
12182;BME280;6154;51.550;12.138;2023-02-13T05:18:19;102717.00;;;13.15;61.57
12182;BME280;6154;51.550;12.138;2023-02-13T05:20:48;102707.22;;;13.15;61.55
12182;BME280;6154;51.550;12.138;2023-02-13T05:23:36;102713.47;;;13.14;61.68
12182;BME280;6154;51.550;12.138;2023-02-13T05:26:03;102715.38;;;13.09;61.82
12182;BME280;6154;51.550;12.138;2023-02-13T05:28:32;102712.72;;;13.09;61.71
12182;BME280;6154;51.550;12.138;2023-02-13T05:31:18;102713.53;;;13.11;61.63
12182;BME280;6154;51.550;12.138;2023-02-13T05:33:47;102709.06;;;13.13;61.48
12182;BME280;6154;51.550;12.138;2023-02-13T05:36:15;102712.59;;;13.14;61.39
12182;BME280;6154;51.550;12.138;2023-02-13T05:38:43;102711.72;;;13.13;61.35
12182;BME280;6154;51.550;12.138;2023-02-13T05:41:11;102710.81;;;13.14;61.32
12182;BME280;6154;51.550;12.138;2023-02-13T05:43:40;102704.66;;;13.12;61.35
12182;BME280;6154;51.550;12.138;2023-02-13T05:46:09;102704.75;;;13.09;61.40
12182;BME280;6154;51.550;12.138;2023-02-13T05:48:37;102702.94;;;13.10;61.39
12182;BME280;6154;51.550;12.138;2023-02-13T05:51:07;102704.75;;;13.09;61.37
12182;BME280;6154;51.550;12.138;2023-02-13T05:53:35;102700.34;;;13.08;61.40
12182;BME280;6154;51.550;12.138;2023-02-13T05:56:04;102698.59;;;13.07;61.41
12182;BME280;6154;51.550;12.138;2023-02-13T05:58:33;102697.78;;;13.05;61.46
12182;BME280;6154;51.550;12.138;2023-02-13T06:01:02;102703.16;;;13.04;61.46
12182;BME280;6154;51.550;12.138;2023-02-13T06:03:31;102705.00;;;13.00;61.59
12182;BME280;6154;51.550;12.138;2023-02-13T06:05:59;102704.13;;;13.00;61.39
12182;BME280;6154;51.550;12.138;2023-02-13T06:08:29;102690.03;;;12.98;61.45
12182;BME280;6154;51.550;12.138;2023-02-13T06:10:57;102695.34;;;12.98;61.46
12182;BME280;6154;51.550;12.138;2023-02-13T06:13:25;102702.44;;;12.97;61.34
12182;BME280;6154;51.550;12.138;2023-02-13T06:15:53;102705.97;;;12.98;61.32
12182;BME280;6154;51.550;12.138;2023-02-13T06:18:22;102704.19;;;12.98;61.31
12182;BME280;6154;51.550;12.138;2023-02-13T06:20:50;102705.97;;;12.98;61.50
12182;BME280;6154;51.550;12.138;2023-02-13T06:23:18;102697.16;;;12.95;61.54
12182;BME280;6154;51.550;12.138;2023-02-13T06:25:48;102705.16;;;12.95;61.61
12182;BME280;6154;51.550;12.138;2023-02-13T06:28:16;102706.94;;;12.95;61.60
12182;BME280;6154;51.550;12.138;2023-02-13T06:30:44;102710.47;;;12.95;61.54
12182;BME280;6154;51.550;12.138;2023-02-13T06:33:13;102706.88;;;12.97;61.56
12182;BME280;6154;51.550;12.138;2023-02-13T06:35:41;102714.84;;;12.97;61.52
12182;BME280;6154;51.550;12.138;2023-02-13T06:38:09;102716.66;;;12.96;61.60
12182;BME280;6154;51.550;12.138;2023-02-13T06:40:37;102714.84;;;12.97;61.53
12182;BME280;6154;51.550;12.138;2023-02-13T06:43:07;102719.31;;;12.96;61.51
12182;BME280;6154;51.550;12.138;2023-02-13T06:45:36;102722.84;;;12.97;61.54
12182;BME280;6154;51.550;12.138;2023-02-13T06:48:04;102719.31;;;12.96;61.47
12182;BME280;6154;51.550;12.138;2023-02-13T06:50:33;102721.91;;;12.98;61.56
12182;BME280;6154;51.550;12.138;2023-02-13T06:53:01;102727.19;;;12.99;61.56
12182;BME280;6154;51.550;12.138;2023-02-13T06:55:29;102726.25;;;13.00;61.54
12182;BME280;6154;51.550;12.138;2023-02-13T06:57:57;102733.31;;;13.03;61.56
12182;BME280;6154;51.550;12.138;2023-02-13T07:00:27;102732.34;;;13.05;61.50
12182;BME280;6154;51.550;12.138;2023-02-13T07:03:00;102734.19;;;13.02;61.81
12182;BME280;6154;51.550;12.138;2023-02-13T07:05:29;102735.88;;;13.06;61.73
12182;BME280;6154;51.550;12.138;2023-02-13T07:07:58;102748.25;;;13.07;61.82
12182;BME280;6154;51.550;12.138;2023-02-13T07:10:26;102738.44;;;13.09;61.65
12182;BME280;6154;51.550;12.138;2023-02-13T07:12:54;102739.19;;;13.12;61.66
12182;BME280;6154;51.550;12.138;2023-02-13T07:15:33;102747.19;;;13.12;61.82
12182;BME280;6154;51.550;12.138;2023-02-13T07:18:02;102743.62;;;13.13;61.83
12182;BME280;6154;51.550;12.138;2023-02-13T07:20:32;102747.97;;;13.16;61.76
12182;BME280;6154;51.550;12.138;2023-02-13T07:23:02;102748.78;;;13.19;61.76
12182;BME280;6154;51.550;12.138;2023-02-13T07:25:31;102745.16;;;13.22;61.75
12182;BME280;6154;51.550;12.138;2023-02-13T07:28:02;102744.22;;;13.25;61.83
12182;BME280;6154;51.550;12.138;2023-02-13T07:30:33;102746.78;;;13.28;61.80
12182;BME280;6154;51.550;12.138;2023-02-13T07:33:02;102746.69;;;13.31;61.68
12182;BME280;6154;51.550;12.138;2023-02-13T07:35:31;102742.25;;;13.31;61.78
12182;BME280;6154;51.550;12.138;2023-02-13T07:38:02;102743.91;;;13.35;61.81
12182;BME280;6154;51.550;12.138;2023-02-13T07:40:30;102744.69;;;13.39;61.87
12182;BME280;6154;51.550;12.138;2023-02-13T07:42:59;102742.78;;;13.42;61.91
12182;BME280;6154;51.550;12.138;2023-02-13T07:45:28;102753.41;;;13.44;61.88
12182;BME280;6154;51.550;12.138;2023-02-13T07:47:57;102748.87;;;13.47;61.95
12182;BME280;6154;51.550;12.138;2023-02-13T07:50:26;102760.28;;;13.51;61.96
12182;BME280;6154;51.550;12.138;2023-02-13T07:52:56;102765.59;;;13.51;62.14
12182;BME280;6154;51.550;12.138;2023-02-13T07:55:25;102761.19;;;13.50;62.19
12182;BME280;6154;51.550;12.138;2023-02-13T07:57:53;102768.22;;;13.52;62.15
12182;BME280;6154;51.550;12.138;2023-02-13T08:00:22;102770.84;;;13.54;62.20
12182;BME280;6154;51.550;12.138;2023-02-13T08:02:50;102769.00;;;13.56;62.23
12182;BME280;6154;51.550;12.138;2023-02-13T08:05:20;102777.66;;;13.64;62.12
12182;BME280;6154;51.550;12.138;2023-02-13T08:07:48;102775.81;;;13.66;62.16
12182;BME280;6154;51.550;12.138;2023-02-13T08:10:17;102781.91;;;13.70;62.08
12182;BME280;6154;51.550;12.138;2023-02-13T08:13:03;102773.75;;;13.76;62.00
12182;BME280;6154;51.550;12.138;2023-02-13T08:15:32;102773.97;;;13.68;62.25
12182;BME280;6154;51.550;12.138;2023-02-13T08:18:00;102783.34;;;13.80;62.11
12182;BME280;6154;51.550;12.138;2023-02-13T08:20:30;102778.84;;;13.84;62.02
12182;BME280;6154;51.550;12.138;2023-02-13T08:23:01;102767.59;;;13.74;62.20
12182;BME280;6154;51.550;12.138;2023-02-13T08:25:30;102764.19;;;13.69;62.33
12182;BME280;6154;51.550;12.138;2023-02-13T08:27:59;102764.69;;;13.81;61.98
12182;BME280;6154;51.550;12.138;2023-02-13T08:30:27;102766.34;;;13.86;62.06
12182;BME280;6154;51.550;12.138;2023-02-13T08:32:55;102773.34;;;13.88;62.11
12182;BME280;6154;51.550;12.138;2023-02-13T08:35:24;102768.38;;;13.77;62.37
12182;BME280;6154;51.550;12.138;2023-02-13T08:38:00;102759.19;;;13.88;61.95
12182;BME280;6154;51.550;12.138;2023-02-13T08:40:28;102770.81;;;13.85;61.89
12182;BME280;6154;51.550;12.138;2023-02-13T08:42:58;102757.22;;;13.93;61.85
12182;BME280;6154;51.550;12.138;2023-02-13T08:45:27;102774.09;;;13.93;61.67
12182;BME280;6154;51.550;12.138;2023-02-13T08:47:56;102770.47;;;13.96;61.73
12182;BME280;6154;51.550;12.138;2023-02-13T08:50:26;102766.81;;;13.98;61.76
12182;BME280;6154;51.550;12.138;2023-02-13T08:52:54;102766.34;;;14.14;61.55
12182;BME280;6154;51.550;12.138;2023-02-13T08:55:25;102771.91;;;14.06;61.21
12182;BME280;6154;51.550;12.138;2023-02-13T08:57:53;102769.34;;;14.03;61.32
12182;BME280;6154;51.550;12.138;2023-02-13T09:00:21;102771.81;;;14.09;61.39
12182;BME280;6154;51.550;12.138;2023-02-13T09:02:49;102772.37;;;14.19;61.21
12182;BME280;6154;51.550;12.138;2023-02-13T09:05:17;102773.25;;;13.91;61.33
12182;BME280;6154;51.550;12.138;2023-02-13T09:07:46;102772.63;;;14.11;61.12
12182;BME280;6154;51.550;12.138;2023-02-13T09:10:14;102782.78;;;13.98;60.93
12182;BME280;6154;51.550;12.138;2023-02-13T09:12:50;102780.72;;;14.08;60.95
12182;BME280;6154;51.550;12.138;2023-02-13T09:15:19;102780.78;;;14.06;60.67
12182;BME280;6154;51.550;12.138;2023-02-13T09:17:47;102789.63;;;14.07;60.83
12182;BME280;6154;51.550;12.138;2023-02-13T09:20:16;102787.72;;;14.10;60.81
12182;BME280;6154;51.550;12.138;2023-02-13T09:22:44;102790.56;;;14.06;61.06
12182;BME280;6154;51.550;12.138;2023-02-13T09:25:12;102785.63;;;13.94;61.07
12182;BME280;6154;51.550;12.138;2023-02-13T09:27:44;102786.28;;;14.00;60.61
12182;BME280;6154;51.550;12.138;2023-02-13T09:30:13;102785.56;;;13.95;60.64
12182;BME280;6154;51.550;12.138;2023-02-13T09:32:49;102784.06;;;13.87;61.04
12182;BME280;6154;51.550;12.138;2023-02-13T09:35:18;102788.47;;;13.88;61.33
12182;BME280;6154;51.550;12.138;2023-02-13T09:37:46;102788.87;;;14.03;61.15
12182;BME280;6154;51.550;12.138;2023-02-13T09:40:19;102791.66;;;14.27;61.10
12182;BME280;6154;51.550;12.138;2023-02-13T09:42:51;102788.81;;;14.33;60.95
12182;BME280;6154;51.550;12.138;2023-02-13T09:45:20;102779.41;;;14.49;60.81
12182;BME280;6154;51.550;12.138;2023-02-13T09:47:49;102789.63;;;14.61;60.64
12182;BME280;6154;51.550;12.138;2023-02-13T09:50:20;102781.12;;;14.77;60.50
12182;BME280;6154;51.550;12.138;2023-02-13T09:52:50;102783.63;;;14.81;60.32
12182;BME280;6154;51.550;12.138;2023-02-13T09:55:23;102783.31;;;14.90;60.30
12182;BME280;6154;51.550;12.138;2023-02-13T09:57:58;102785.00;;;14.93;60.02
12182;BME280;6154;51.550;12.138;2023-02-13T10:00:34;102778.78;;;14.92;60.11
12182;BME280;6154;51.550;12.138;2023-02-13T10:03:23;102784.41;;;15.10;60.04
12182;BME280;6154;51.550;12.138;2023-02-13T10:05:59;102780.88;;;14.84;57.77
12182;BME280;6154;51.550;12.138;2023-02-13T10:08:48;102777.44;;;15.06;59.51
12182;BME280;6154;51.550;12.138;2023-02-13T10:11:34;102784.81;;;15.22;58.84
12182;BME280;6154;51.550;12.138;2023-02-13T10:14:14;102784.41;;;15.10;58.73
12182;BME280;6154;51.550;12.138;2023-02-13T10:16:46;102788.59;;;15.17;58.54
12182;BME280;6154;51.550;12.138;2023-02-13T10:19:28;102777.06;;;15.40;59.26
12182;BME280;6154;51.550;12.138;2023-02-13T10:22:01;102780.03;;;15.32;58.40
12182;BME280;6154;51.550;12.138;2023-02-13T10:24:34;102779.88;;;15.37;59.10
12182;BME280;6154;51.550;12.138;2023-02-13T10:27:15;102785.34;;;15.32;58.67
12182;BME280;6154;51.550;12.138;2023-02-13T10:29:49;102782.81;;;15.29;57.99
12182;BME280;6154;51.550;12.138;2023-02-13T10:32:42;102782.41;;;15.16;58.29
12182;BME280;6154;51.550;12.138;2023-02-13T10:35:19;102784.56;;;15.30;58.25
12182;BME280;6154;51.550;12.138;2023-02-13T10:37:52;102773.47;;;15.41;58.54
12182;BME280;6154;51.550;12.138;2023-02-13T10:40:23;102780.28;;;15.49;58.48
12182;BME280;6154;51.550;12.138;2023-02-13T10:43:04;102780.16;;;15.52;58.69
12182;BME280;6154;51.550;12.138;2023-02-13T10:45:50;102773.00;;;15.53;58.33
12182;BME280;6154;51.550;12.138;2023-02-13T10:48:32;102767.47;;;15.36;56.99
12182;BME280;6154;51.550;12.138;2023-02-13T10:51:08;102760.38;;;15.58;58.04
12182;BME280;6154;51.550;12.138;2023-02-13T10:53:48;102760.38;;;15.58;58.63
12182;BME280;6154;51.550;12.138;2023-02-13T10:56:25;102745.06;;;15.87;58.43
12182;BME280;6154;51.550;12.138;2023-02-13T10:59:14;102746.13;;;16.04;58.04
12182;BME280;6154;51.550;12.138;2023-02-13T11:01:52;102738.72;;;15.89;56.64
12182;BME280;6154;51.550;12.138;2023-02-13T11:04:23;102739.88;;;15.82;57.71
12182;BME280;6154;51.550;12.138;2023-02-13T11:06:55;102746.00;;;16.07;58.53
12182;BME280;6154;51.550;12.138;2023-02-13T11:09:25;102741.28;;;16.14;57.48
12182;BME280;6154;51.550;12.138;2023-02-13T11:11:54;102734.41;;;16.29;58.10
12182;BME280;6154;51.550;12.138;2023-02-13T11:14:23;102736.09;;;16.09;57.05
12182;BME280;6154;51.550;12.138;2023-02-13T11:16:57;102732.91;;;16.22;57.81
12182;BME280;6154;51.550;12.138;2023-02-13T11:19:31;102733.06;;;16.19;57.04
12182;BME280;6154;51.550;12.138;2023-02-13T11:22:02;102736.75;;;16.16;57.51
12182;BME280;6154;51.550;12.138;2023-02-13T11:24:32;102733.84;;;16.21;57.65
12182;BME280;6154;51.550;12.138;2023-02-13T11:27:03;102733.19;;;16.16;56.88
12182;BME280;6154;51.550;12.138;2023-02-13T11:29:36;102722.50;;;16.16;57.37
12182;BME280;6154;51.550;12.138;2023-02-13T11:32:22;102728.19;;;16.28;57.56
12182;BME280;6154;51.550;12.138;2023-02-13T11:34:51;102728.50;;;16.21;55.31
12182;BME280;6154;51.550;12.138;2023-02-13T11:37:23;102730.47;;;16.17;57.59
12182;BME280;6154;51.550;12.138;2023-02-13T11:39:53;102730.66;;;16.33;57.53
12182;BME280;6154;51.550;12.138;2023-02-13T11:42:28;102722.84;;;16.28;57.23
12182;BME280;6154;51.550;12.138;2023-02-13T11:44:59;102721.47;;;16.40;56.87
12182;BME280;6154;51.550;12.138;2023-02-13T11:47:33;102721.84;;;16.31;56.50
12182;BME280;6154;51.550;12.138;2023-02-13T11:50:06;102721.22;;;16.46;56.95
12182;BME280;6154;51.550;12.138;2023-02-13T11:52:53;102722.63;;;16.34;57.09
12182;BME280;6154;51.550;12.138;2023-02-13T11:55:39;102727.19;;;16.31;56.43
12182;BME280;6154;51.550;12.138;2023-02-13T11:58:22;102719.41;;;16.47;55.22
12182;BME280;6154;51.550;12.138;2023-02-13T12:01:07;102719.97;;;16.55;55.75
12182;BME280;6154;51.550;12.138;2023-02-13T12:03:40;102718.56;;;16.66;55.61
12182;BME280;6154;51.550;12.138;2023-02-13T12:06:12;102721.19;;;16.68;56.63
12182;BME280;6154;51.550;12.138;2023-02-13T12:08:43;102718.97;;;16.78;56.78
12182;BME280;6154;51.550;12.138;2023-02-13T12:11:20;102722.84;;;16.71;55.93
12182;BME280;6154;51.550;12.138;2023-02-13T12:13:50;102726.28;;;16.74;55.83
12182;BME280;6154;51.550;12.138;2023-02-13T12:16:28;102727.63;;;16.62;55.70
12182;BME280;6154;51.550;12.138;2023-02-13T12:19:00;102716.28;;;16.57;54.30
12182;BME280;6154;51.550;12.138;2023-02-13T12:21:52;102718.63;;;16.65;56.07
12182;BME280;6154;51.550;12.138;2023-02-13T12:24:36;102716.03;;;16.63;54.70
12182;BME280;6154;51.550;12.138;2023-02-13T12:27:15;102714.25;;;16.62;55.16
12182;BME280;6154;51.550;12.138;2023-02-13T12:29:57;102707.06;;;16.44;54.34
12182;BME280;6154;51.550;12.138;2023-02-13T12:32:32;102702.97;;;16.56;55.10
12182;BME280;6154;51.550;12.138;2023-02-13T12:35:30;102701.53;;;16.69;56.12
12182;BME280;6154;51.550;12.138;2023-02-13T12:38:08;102696.50;;;16.82;54.48
12182;BME280;6154;51.550;12.138;2023-02-13T12:41:05;102691.44;;;16.76;54.71
12182;BME280;6154;51.550;12.138;2023-02-13T12:46:51;102693.56;;;16.47;52.38
12182;BME280;6154;51.550;12.138;2023-02-13T12:49:35;102685.25;;;16.53;55.60
12182;BME280;6154;51.550;12.138;2023-02-13T12:52:22;102685.78;;;16.61;55.07
12182;BME280;6154;51.550;12.138;2023-02-13T12:55:02;102686.72;;;16.60;54.24
12182;BME280;6154;51.550;12.138;2023-02-13T12:57:46;102673.94;;;16.69;55.36
12182;BME280;6154;51.550;12.138;2023-02-13T13:00:27;102670.69;;;16.60;53.40
12182;BME280;6154;51.550;12.138;2023-02-13T13:03:09;102682.75;;;16.71;54.90
12182;BME280;6154;51.550;12.138;2023-02-13T13:05:52;102667.50;;;16.73;54.57
12182;BME280;6154;51.550;12.138;2023-02-13T13:09:05;102666.75;;;16.89;55.45
12182;BME280;6154;51.550;12.138;2023-02-13T13:11:52;102662.56;;;17.03;54.40
12182;BME280;6154;51.550;12.138;2023-02-13T13:14:31;102658.59;;;17.11;54.48
12182;BME280;6154;51.550;12.138;2023-02-13T13:17:12;102661.69;;;17.02;53.22
12182;BME280;6154;51.550;12.138;2023-02-13T13:19:52;102659.34;;;16.76;54.00
12182;BME280;6154;51.550;12.138;2023-02-13T13:22:28;102664.81;;;16.73;54.75
12182;BME280;6154;51.550;12.138;2023-02-13T13:25:09;102666.12;;;16.83;55.30
12182;BME280;6154;51.550;12.138;2023-02-13T13:27:43;102662.81;;;16.37;52.70